sensor_id;sensor_type;location;lat;lon;timestamp;P1;durP1;ratioP1;P2;durP2;ratioP2
41881;SDS011;27562;47.524;12.404;2024-01-10T00:01:23;26.77;;;11.27;;
41881;SDS011;27562;47.524;12.404;2024-01-10T00:03:53;28.70;;;12.52;;
41881;SDS011;27562;47.524;12.404;2024-01-10T00:06:19;27.38;;;11.80;;
41881;SDS011;27562;47.524;12.404;2024-01-10T00:08:45;28.00;;;11.80;;
41881;SDS011;27562;47.524;12.404;2024-01-10T00:11:10;29.05;;;11.82;;
41881;SDS011;27562;47.524;12.404;2024-01-10T00:13:36;31.63;;;12.57;;
41881;SDS011;27562;47.524;12.404;2024-01-10T00:16:02;22.25;;;10.55;;
41881;SDS011;27562;47.524;12.404;2024-01-10T00:18:28;26.15;;;11.65;;
41881;SDS011;27562;47.524;12.404;2024-01-10T00:20:54;27.08;;;10.90;;
41881;SDS011;27562;47.524;12.404;2024-01-10T00:23:20;29.65;;;12.18;;
41881;SDS011;27562;47.524;12.404;2024-01-10T00:25:46;26.70;;;11.57;;
41881;SDS011;27562;47.524;12.404;2024-01-10T00:28:13;28.90;;;12.48;;
41881;SDS011;27562;47.524;12.404;2024-01-10T00:30:39;26.50;;;11.40;;
41881;SDS011;27562;47.524;12.404;2024-01-10T00:33:05;29.88;;;12.45;;
41881;SDS011;27562;47.524;12.404;2024-01-10T00:35:30;32.10;;;13.27;;
41881;SDS011;27562;47.524;12.404;2024-01-10T00:37:56;30.25;;;11.82;;
41881;SDS011;27562;47.524;12.404;2024-01-10T00:40:22;27.08;;;11.18;;
41881;SDS011;27562;47.524;12.404;2024-01-10T00:42:48;30.27;;;11.85;;
41881;SDS011;27562;47.524;12.404;2024-01-10T00:45:14;25.60;;;11.38;;
41881;SDS011;27562;47.524;12.404;2024-01-10T00:47:40;29.08;;;10.98;;
41881;SDS011;27562;47.524;12.404;2024-01-10T00:50:06;23.83;;;10.27;;
41881;SDS011;27562;47.524;12.404;2024-01-10T00:52:32;30.42;;;11.63;;
41881;SDS011;27562;47.524;12.404;2024-01-10T00:55:00;24.95;;;11.20;;
41881;SDS011;27562;47.524;12.404;2024-01-10T00:57:28;24.30;;;11.10;;
41881;SDS011;27562;47.524;12.404;2024-01-10T00:59:54;27.58;;;11.02;;
41881;SDS011;27562;47.524;12.404;2024-01-10T01:02:20;27.83;;;11.20;;
41881;SDS011;27562;47.524;12.404;2024-01-10T01:04:46;29.73;;;12.15;;
41881;SDS011;27562;47.524;12.404;2024-01-10T01:07:12;29.65;;;11.20;;
41881;SDS011;27562;47.524;12.404;2024-01-10T01:09:39;29.02;;;11.88;;
41881;SDS011;27562;47.524;12.404;2024-01-10T01:12:05;29.05;;;11.88;;
41881;SDS011;27562;47.524;12.404;2024-01-10T01:14:31;33.03;;;12.68;;
41881;SDS011;27562;47.524;12.404;2024-01-10T01:16:58;26.80;;;11.48;;
41881;SDS011;27562;47.524;12.404;2024-01-10T01:19:27;27.58;;;11.88;;
41881;SDS011;27562;47.524;12.404;2024-01-10T01:21:53;26.40;;;11.30;;
41881;SDS011;27562;47.524;12.404;2024-01-10T01:24:20;22.88;;;9.63;;
41881;SDS011;27562;47.524;12.404;2024-01-10T01:26:48;27.58;;;10.65;;
41881;SDS011;27562;47.524;12.404;2024-01-10T01:29:14;25.23;;;10.90;;
41881;SDS011;27562;47.524;12.404;2024-01-10T01:31:39;26.48;;;10.25;;
41881;SDS011;27562;47.524;12.404;2024-01-10T01:34:05;26.20;;;10.65;;
41881;SDS011;27562;47.524;12.404;2024-01-10T01:36:31;26.33;;;11.10;;
41881;SDS011;27562;47.524;12.404;2024-01-10T01:38:58;28.52;;;11.00;;
41881;SDS011;27562;47.524;12.404;2024-01-10T01:41:24;29.33;;;10.85;;
41881;SDS011;27562;47.524;12.404;2024-01-10T01:43:50;28.83;;;10.88;;
41881;SDS011;27562;47.524;12.404;2024-01-10T01:46:16;30.25;;;12.63;;
41881;SDS011;27562;47.524;12.404;2024-01-10T01:48:43;28.92;;;12.15;;
41881;SDS011;27562;47.524;12.404;2024-01-10T01:51:09;30.90;;;11.48;;
41881;SDS011;27562;47.524;12.404;2024-01-10T01:53:37;29.75;;;11.40;;
41881;SDS011;27562;47.524;12.404;2024-01-10T01:56:06;26.83;;;11.18;;
41881;SDS011;27562;47.524;12.404;2024-01-10T01:58:34;26.60;;;11.85;;
41881;SDS011;27562;47.524;12.404;2024-01-10T02:01:02;27.90;;;11.02;;
41881;SDS011;27562;47.524;12.404;2024-01-10T02:03:30;33.92;;;11.70;;
41881;SDS011;27562;47.524;12.404;2024-01-10T02:05:57;32.08;;;11.13;;
41881;SDS011;27562;47.524;12.404;2024-01-10T02:08:23;24.65;;;9.88;;
41881;SDS011;27562;47.524;12.404;2024-01-10T02:10:48;28.92;;;10.65;;
41881;SDS011;27562;47.524;12.404;2024-01-10T02:13:14;27.23;;;10.10;;
41881;SDS011;27562;47.524;12.404;2024-01-10T02:15:41;26.33;;;11.75;;
41881;SDS011;27562;47.524;12.404;2024-01-10T02:18:08;26.58;;;10.77;;
41881;SDS011;27562;47.524;12.404;2024-01-10T02:20:37;17.35;;;8.55;;
41881;SDS011;27562;47.524;12.404;2024-01-10T02:23:03;22.15;;;10.63;;
41881;SDS011;27562;47.524;12.404;2024-01-10T02:25:29;26.55;;;10.45;;
41881;SDS011;27562;47.524;12.404;2024-01-10T02:27:54;24.67;;;10.35;;
41881;SDS011;27562;47.524;12.404;2024-01-10T02:30:20;26.60;;;10.20;;
41881;SDS011;27562;47.524;12.404;2024-01-10T02:32:46;25.83;;;11.05;;
41881;SDS011;27562;47.524;12.404;2024-01-10T02:35:11;29.63;;;11.20;;
41881;SDS011;27562;47.524;12.404;2024-01-10T02:37:37;28.48;;;9.65;;
41881;SDS011;27562;47.524;12.404;2024-01-10T02:40:03;29.40;;;11.23;;
41881;SDS011;27562;47.524;12.404;2024-01-10T02:42:29;21.15;;;9.93;;
41881;SDS011;27562;47.524;12.404;2024-01-10T02:44:56;24.42;;;10.00;;
41881;SDS011;27562;47.524;12.404;2024-01-10T02:47:22;25.67;;;11.15;;
41881;SDS011;27562;47.524;12.404;2024-01-10T02:49:47;24.77;;;9.70;;
41881;SDS011;27562;47.524;12.404;2024-01-10T02:52:13;25.42;;;10.20;;
41881;SDS011;27562;47.524;12.404;2024-01-10T02:54:39;21.58;;;9.57;;
41881;SDS011;27562;47.524;12.404;2024-01-10T02:57:04;23.02;;;9.23;;
41881;SDS011;27562;47.524;12.404;2024-01-10T02:59:30;25.33;;;10.50;;
41881;SDS011;27562;47.524;12.404;2024-01-10T03:01:56;22.33;;;9.70;;
41881;SDS011;27562;47.524;12.404;2024-01-10T03:04:21;26.85;;;10.23;;
41881;SDS011;27562;47.524;12.404;2024-01-10T03:06:48;33.08;;;11.00;;
41881;SDS011;27562;47.524;12.404;2024-01-10T03:09:14;26.73;;;10.35;;
41881;SDS011;27562;47.524;12.404;2024-01-10T03:11:39;25.95;;;10.05;;
41881;SDS011;27562;47.524;12.404;2024-01-10T03:14:09;21.75;;;10.20;;
41881;SDS011;27562;47.524;12.404;2024-01-10T03:16:35;21.65;;;9.27;;
41881;SDS011;27562;47.524;12.404;2024-01-10T03:19:02;29.92;;;11.77;;
41881;SDS011;27562;47.524;12.404;2024-01-10T03:21:28;24.88;;;10.30;;
41881;SDS011;27562;47.524;12.404;2024-01-10T03:23:56;25.27;;;10.05;;
41881;SDS011;27562;47.524;12.404;2024-01-10T03:26:23;27.60;;;10.47;;
41881;SDS011;27562;47.524;12.404;2024-01-10T03:28:50;29.52;;;10.82;;
41881;SDS011;27562;47.524;12.404;2024-01-10T03:31:16;23.80;;;9.77;;
41881;SDS011;27562;47.524;12.404;2024-01-10T03:33:42;21.33;;;9.35;;
41881;SDS011;27562;47.524;12.404;2024-01-10T03:36:09;23.20;;;9.60;;
41881;SDS011;27562;47.524;12.404;2024-01-10T03:38:41;26.83;;;10.35;;
41881;SDS011;27562;47.524;12.404;2024-01-10T03:41:12;26.20;;;10.35;;
41881;SDS011;27562;47.524;12.404;2024-01-10T03:46:04;23.70;;;9.20;;
41881;SDS011;27562;47.524;12.404;2024-01-10T03:48:30;22.50;;;9.82;;
41881;SDS011;27562;47.524;12.404;2024-01-10T03:50:56;22.27;;;9.70;;
41881;SDS011;27562;47.524;12.404;2024-01-10T03:53:22;26.67;;;10.02;;
41881;SDS011;27562;47.524;12.404;2024-01-10T03:55:48;25.17;;;10.40;;
41881;SDS011;27562;47.524;12.404;2024-01-10T03:58:13;23.73;;;9.57;;
41881;SDS011;27562;47.524;12.404;2024-01-10T04:00:39;24.38;;;10.32;;
41881;SDS011;27562;47.524;12.404;2024-01-10T04:03:04;27.70;;;10.45;;
41881;SDS011;27562;47.524;12.404;2024-01-10T04:05:30;24.75;;;10.27;;
41881;SDS011;27562;47.524;12.404;2024-01-10T04:07:56;23.17;;;9.02;;
41881;SDS011;27562;47.524;12.404;2024-01-10T04:10:22;25.88;;;9.93;;
41881;SDS011;27562;47.524;12.404;2024-01-10T04:12:48;23.55;;;9.05;;
41881;SDS011;27562;47.524;12.404;2024-01-10T04:15:14;25.23;;;10.10;;
41881;SDS011;27562;47.524;12.404;2024-01-10T04:17:40;27.88;;;9.82;;
41881;SDS011;27562;47.524;12.404;2024-01-10T04:20:06;25.13;;;10.07;;
41881;SDS011;27562;47.524;12.404;2024-01-10T04:22:32;25.13;;;10.32;;
41881;SDS011;27562;47.524;12.404;2024-01-10T04:24:58;27.98;;;10.73;;
41881;SDS011;27562;47.524;12.404;2024-01-10T04:27:25;24.27;;;9.65;;
41881;SDS011;27562;47.524;12.404;2024-01-10T04:29:51;26.77;;;9.23;;
41881;SDS011;27562;47.524;12.404;2024-01-10T04:32:16;18.60;;;7.00;;
41881;SDS011;27562;47.524;12.404;2024-01-10T04:34:42;22.90;;;9.13;;
41881;SDS011;27562;47.524;12.404;2024-01-10T04:37:08;24.77;;;9.88;;
41881;SDS011;27562;47.524;12.404;2024-01-10T04:39:34;22.85;;;8.93;;
41881;SDS011;27562;47.524;12.404;2024-01-10T04:42:00;23.90;;;9.13;;
41881;SDS011;27562;47.524;12.404;2024-01-10T04:44:26;22.17;;;8.90;;
41881;SDS011;27562;47.524;12.404;2024-01-10T04:46:52;25.75;;;9.13;;
41881;SDS011;27562;47.524;12.404;2024-01-10T04:49:17;28.42;;;9.88;;
41881;SDS011;27562;47.524;12.404;2024-01-10T04:51:43;26.05;;;9.40;;
41881;SDS011;27562;47.524;12.404;2024-01-10T04:54:10;23.05;;;9.02;;
41881;SDS011;27562;47.524;12.404;2024-01-10T04:56:36;23.55;;;8.93;;
41881;SDS011;27562;47.524;12.404;2024-01-10T04:59:02;24.75;;;8.65;;
41881;SDS011;27562;47.524;12.404;2024-01-10T05:01:28;29.05;;;9.80;;
41881;SDS011;27562;47.524;12.404;2024-01-10T05:03:54;24.60;;;9.05;;
41881;SDS011;27562;47.524;12.404;2024-01-10T05:06:20;21.25;;;9.32;;
41881;SDS011;27562;47.524;12.404;2024-01-10T05:08:45;19.98;;;8.43;;
41881;SDS011;27562;47.524;12.404;2024-01-10T05:11:11;25.27;;;9.43;;
41881;SDS011;27562;47.524;12.404;2024-01-10T05:13:38;27.20;;;10.70;;
41881;SDS011;27562;47.524;12.404;2024-01-10T05:16:04;25.25;;;9.80;;
41881;SDS011;27562;47.524;12.404;2024-01-10T05:18:30;20.23;;;9.20;;
41881;SDS011;27562;47.524;12.404;2024-01-10T05:20:56;20.42;;;8.60;;
41881;SDS011;27562;47.524;12.404;2024-01-10T05:23:22;18.80;;;8.57;;
41881;SDS011;27562;47.524;12.404;2024-01-10T05:25:48;20.55;;;8.77;;
41881;SDS011;27562;47.524;12.404;2024-01-10T05:28:14;18.05;;;8.00;;
41881;SDS011;27562;47.524;12.404;2024-01-10T05:30:40;21.67;;;8.48;;
41881;SDS011;27562;47.524;12.404;2024-01-10T05:33:07;24.38;;;9.27;;
41881;SDS011;27562;47.524;12.404;2024-01-10T05:35:33;19.05;;;8.27;;
41881;SDS011;27562;47.524;12.404;2024-01-10T05:38:00;20.88;;;9.90;;
41881;SDS011;27562;47.524;12.404;2024-01-10T05:40:27;28.65;;;10.00;;
41881;SDS011;27562;47.524;12.404;2024-01-10T05:42:55;20.20;;;9.45;;
41881;SDS011;27562;47.524;12.404;2024-01-10T05:45:21;24.63;;;8.38;;
41881;SDS011;27562;47.524;12.404;2024-01-10T05:47:47;21.80;;;8.32;;
41881;SDS011;27562;47.524;12.404;2024-01-10T05:50:13;20.15;;;8.40;;
41881;SDS011;27562;47.524;12.404;2024-01-10T05:52:39;21.17;;;9.35;;
41881;SDS011;27562;47.524;12.404;2024-01-10T05:55:05;20.85;;;9.75;;
41881;SDS011;27562;47.524;12.404;2024-01-10T05:57:34;26.83;;;10.52;;
41881;SDS011;27562;47.524;12.404;2024-01-10T06:00:00;20.52;;;9.00;;
41881;SDS011;27562;47.524;12.404;2024-01-10T06:02:26;25.88;;;12.30;;
41881;SDS011;27562;47.524;12.404;2024-01-10T06:04:52;29.25;;;13.52;;
41881;SDS011;27562;47.524;12.404;2024-01-10T06:07:17;56.35;;;27.80;;
41881;SDS011;27562;47.524;12.404;2024-01-10T06:09:43;39.10;;;21.63;;
41881;SDS011;27562;47.524;12.404;2024-01-10T06:12:09;31.33;;;15.52;;
41881;SDS011;27562;47.524;12.404;2024-01-10T06:14:35;39.60;;;14.73;;
41881;SDS011;27562;47.524;12.404;2024-01-10T06:17:01;60.17;;;19.30;;
41881;SDS011;27562;47.524;12.404;2024-01-10T06:19:28;49.72;;;17.92;;
41881;SDS011;27562;47.524;12.404;2024-01-10T06:21:56;34.05;;;13.85;;
41881;SDS011;27562;47.524;12.404;2024-01-10T06:24:22;41.60;;;15.90;;
41881;SDS011;27562;47.524;12.404;2024-01-10T06:26:47;29.55;;;12.93;;
41881;SDS011;27562;47.524;12.404;2024-01-10T06:29:14;33.88;;;12.32;;
41881;SDS011;27562;47.524;12.404;2024-01-10T06:31:40;28.98;;;11.05;;
41881;SDS011;27562;47.524;12.404;2024-01-10T06:34:06;31.52;;;11.20;;
41881;SDS011;27562;47.524;12.404;2024-01-10T06:36:32;29.88;;;12.77;;
41881;SDS011;27562;47.524;12.404;2024-01-10T06:38:58;28.42;;;11.68;;
41881;SDS011;27562;47.524;12.404;2024-01-10T06:41:25;22.45;;;9.90;;
41881;SDS011;27562;47.524;12.404;2024-01-10T06:43:51;29.67;;;11.93;;
41881;SDS011;27562;47.524;12.404;2024-01-10T06:46:18;38.97;;;15.27;;
41881;SDS011;27562;47.524;12.404;2024-01-10T06:48:43;43.17;;;14.98;;
41881;SDS011;27562;47.524;12.404;2024-01-10T06:51:10;35.78;;;16.13;;
41881;SDS011;27562;47.524;12.404;2024-01-10T06:53:39;35.30;;;14.30;;
41881;SDS011;27562;47.524;12.404;2024-01-10T06:56:05;32.47;;;13.23;;
41881;SDS011;27562;47.524;12.404;2024-01-10T06:58:32;34.45;;;13.95;;
41881;SDS011;27562;47.524;12.404;2024-01-10T07:00:58;33.15;;;13.43;;
41881;SDS011;27562;47.524;12.404;2024-01-10T07:03:25;28.27;;;12.73;;
41881;SDS011;27562;47.524;12.404;2024-01-10T07:05:51;43.50;;;13.43;;
41881;SDS011;27562;47.524;12.404;2024-01-10T07:08:17;27.10;;;12.15;;
41881;SDS011;27562;47.524;12.404;2024-01-10T07:10:43;29.60;;;11.88;;
41881;SDS011;27562;47.524;12.404;2024-01-10T07:13:09;28.90;;;12.10;;
41881;SDS011;27562;47.524;12.404;2024-01-10T07:15:35;27.75;;;11.82;;
41881;SDS011;27562;47.524;12.404;2024-01-10T07:18:02;32.75;;;13.55;;
41881;SDS011;27562;47.524;12.404;2024-01-10T07:20:28;38.88;;;13.77;;
41881;SDS011;27562;47.524;12.404;2024-01-10T07:22:53;34.03;;;14.00;;
41881;SDS011;27562;47.524;12.404;2024-01-10T07:25:19;30.15;;;13.75;;
41881;SDS011;27562;47.524;12.404;2024-01-10T07:27:47;29.55;;;13.18;;
41881;SDS011;27562;47.524;12.404;2024-01-10T07:30:13;31.90;;;13.38;;
41881;SDS011;27562;47.524;12.404;2024-01-10T07:32:45;31.33;;;12.82;;
41881;SDS011;27562;47.524;12.404;2024-01-10T07:35:11;26.23;;;11.45;;
41881;SDS011;27562;47.524;12.404;2024-01-10T07:37:41;26.63;;;11.98;;
41881;SDS011;27562;47.524;12.404;2024-01-10T07:40:07;26.88;;;11.38;;
41881;SDS011;27562;47.524;12.404;2024-01-10T07:42:35;25.48;;;8.98;;
41881;SDS011;27562;47.524;12.404;2024-01-10T07:45:02;23.95;;;9.68;;
41881;SDS011;27562;47.524;12.404;2024-01-10T07:47:29;18.35;;;8.50;;
41881;SDS011;27562;47.524;12.404;2024-01-10T07:49:56;28.60;;;10.70;;
41881;SDS011;27562;47.524;12.404;2024-01-10T07:52:22;31.58;;;11.13;;
41881;SDS011;27562;47.524;12.404;2024-01-10T07:54:48;21.50;;;9.98;;
41881;SDS011;27562;47.524;12.404;2024-01-10T07:57:14;29.73;;;11.85;;
41881;SDS011;27562;47.524;12.404;2024-01-10T07:59:39;27.17;;;9.75;;
41881;SDS011;27562;47.524;12.404;2024-01-10T08:02:05;27.23;;;12.23;;
41881;SDS011;27562;47.524;12.404;2024-01-10T08:04:32;29.27;;;12.30;;
41881;SDS011;27562;47.524;12.404;2024-01-10T08:06:57;26.50;;;10.50;;
41881;SDS011;27562;47.524;12.404;2024-01-10T08:09:23;34.20;;;11.05;;
41881;SDS011;27562;47.524;12.404;2024-01-10T08:11:49;26.10;;;10.93;;
41881;SDS011;27562;47.524;12.404;2024-01-10T08:14:15;26.73;;;11.18;;
41881;SDS011;27562;47.524;12.404;2024-01-10T08:16:41;26.90;;;12.13;;
41881;SDS011;27562;47.524;12.404;2024-01-10T08:19:07;33.97;;;13.00;;
41881;SDS011;27562;47.524;12.404;2024-01-10T08:21:33;30.52;;;13.30;;
41881;SDS011;27562;47.524;12.404;2024-01-10T08:24:00;28.08;;;12.23;;
41881;SDS011;27562;47.524;12.404;2024-01-10T08:26:27;32.50;;;12.07;;
41881;SDS011;27562;47.524;12.404;2024-01-10T08:28:53;29.40;;;10.35;;
41881;SDS011;27562;47.524;12.404;2024-01-10T08:31:18;29.70;;;10.95;;
41881;SDS011;27562;47.524;12.404;2024-01-10T08:33:44;25.48;;;10.20;;
41881;SDS011;27562;47.524;12.404;2024-01-10T08:36:11;28.17;;;11.05;;
41881;SDS011;27562;47.524;12.404;2024-01-10T08:38:38;23.88;;;9.30;;
41881;SDS011;27562;47.524;12.404;2024-01-10T08:41:03;27.27;;;9.68;;
41881;SDS011;27562;47.524;12.404;2024-01-10T08:43:29;27.73;;;10.65;;
41881;SDS011;27562;47.524;12.404;2024-01-10T08:45:56;21.42;;;9.80;;
41881;SDS011;27562;47.524;12.404;2024-01-10T08:48:23;21.00;;;10.10;;
41881;SDS011;27562;47.524;12.404;2024-01-10T08:50:49;31.23;;;12.75;;
41881;SDS011;27562;47.524;12.404;2024-01-10T08:53:15;31.77;;;12.07;;
41881;SDS011;27562;47.524;12.404;2024-01-10T08:55:41;25.92;;;11.05;;
41881;SDS011;27562;47.524;12.404;2024-01-10T08:58:07;34.58;;;12.13;;
41881;SDS011;27562;47.524;12.404;2024-01-10T09:00:33;29.27;;;11.93;;
41881;SDS011;27562;47.524;12.404;2024-01-10T09:02:59;35.85;;;13.18;;
41881;SDS011;27562;47.524;12.404;2024-01-10T09:05:25;31.58;;;12.95;;
41881;SDS011;27562;47.524;12.404;2024-01-10T09:07:51;29.73;;;12.40;;
41881;SDS011;27562;47.524;12.404;2024-01-10T09:10:18;29.25;;;12.43;;
41881;SDS011;27562;47.524;12.404;2024-01-10T09:12:46;27.45;;;12.05;;
41881;SDS011;27562;47.524;12.404;2024-01-10T09:15:12;31.35;;;10.68;;
41881;SDS011;27562;47.524;12.404;2024-01-10T09:17:42;33.13;;;12.27;;
41881;SDS011;27562;47.524;12.404;2024-01-10T09:20:08;26.80;;;11.10;;
41881;SDS011;27562;47.524;12.404;2024-01-10T09:22:35;28.88;;;11.02;;
41881;SDS011;27562;47.524;12.404;2024-01-10T09:25:01;33.35;;;10.68;;
41881;SDS011;27562;47.524;12.404;2024-01-10T09:27:30;29.45;;;12.75;;
41881;SDS011;27562;47.524;12.404;2024-01-10T09:29:56;26.67;;;12.02;;
41881;SDS011;27562;47.524;12.404;2024-01-10T09:32:22;32.83;;;12.45;;
41881;SDS011;27562;47.524;12.404;2024-01-10T09:34:47;33.53;;;12.27;;
41881;SDS011;27562;47.524;12.404;2024-01-10T09:37:13;38.95;;;14.32;;
41881;SDS011;27562;47.524;12.404;2024-01-10T09:39:39;37.42;;;14.02;;
41881;SDS011;27562;47.524;12.404;2024-01-10T09:42:04;37.85;;;13.32;;
41881;SDS011;27562;47.524;12.404;2024-01-10T09:44:31;33.67;;;14.07;;
41881;SDS011;27562;47.524;12.404;2024-01-10T09:46:58;31.85;;;13.50;;
41881;SDS011;27562;47.524;12.404;2024-01-10T09:49:25;36.90;;;13.25;;
41881;SDS011;27562;47.524;12.404;2024-01-10T09:51:53;33.60;;;14.98;;
41881;SDS011;27562;47.524;12.404;2024-01-10T09:54:24;30.65;;;11.98;;
41881;SDS011;27562;47.524;12.404;2024-01-10T09:56:51;33.30;;;13.48;;
41881;SDS011;27562;47.524;12.404;2024-01-10T09:59:18;36.05;;;14.95;;
41881;SDS011;27562;47.524;12.404;2024-01-10T10:01:44;40.58;;;14.93;;
41881;SDS011;27562;47.524;12.404;2024-01-10T10:04:11;44.40;;;15.85;;
41881;SDS011;27562;47.524;12.404;2024-01-10T10:06:37;46.45;;;16.02;;
41881;SDS011;27562;47.524;12.404;2024-01-10T10:09:03;50.83;;;18.83;;
41881;SDS011;27562;47.524;12.404;2024-01-10T10:11:29;44.97;;;18.88;;
41881;SDS011;27562;47.524;12.404;2024-01-10T10:13:55;44.45;;;18.75;;
41881;SDS011;27562;47.524;12.404;2024-01-10T10:16:24;48.85;;;18.80;;
41881;SDS011;27562;47.524;12.404;2024-01-10T10:18:53;45.10;;;18.30;;
41881;SDS011;27562;47.524;12.404;2024-01-10T10:21:23;40.55;;;16.73;;
41881;SDS011;27562;47.524;12.404;2024-01-10T10:24:01;35.17;;;15.88;;
41881;SDS011;27562;47.524;12.404;2024-01-10T10:26:29;40.95;;;16.90;;
41881;SDS011;27562;47.524;12.404;2024-01-10T10:28:57;47.13;;;20.15;;
41881;SDS011;27562;47.524;12.404;2024-01-10T10:31:24;46.38;;;18.50;;
41881;SDS011;27562;47.524;12.404;2024-01-10T10:33:51;41.40;;;17.77;;
41881;SDS011;27562;47.524;12.404;2024-01-10T10:36:17;50.45;;;20.40;;
41881;SDS011;27562;47.524;12.404;2024-01-10T10:38:43;42.70;;;19.15;;
41881;SDS011;27562;47.524;12.404;2024-01-10T10:41:12;53.35;;;21.55;;
41881;SDS011;27562;47.524;12.404;2024-01-10T10:43:39;48.60;;;20.65;;
41881;SDS011;27562;47.524;12.404;2024-01-10T10:46:08;46.15;;;19.55;;
41881;SDS011;27562;47.524;12.404;2024-01-10T10:48:37;42.50;;;18.08;;
41881;SDS011;27562;47.524;12.404;2024-01-10T10:53:32;46.65;;;20.00;;
41881;SDS011;27562;47.524;12.404;2024-01-10T10:56:02;42.90;;;17.10;;
41881;SDS011;27562;47.524;12.404;2024-01-10T10:58:31;37.88;;;17.75;;
41881;SDS011;27562;47.524;12.404;2024-01-10T11:01:00;41.50;;;17.73;;
41881;SDS011;27562;47.524;12.404;2024-01-10T11:03:36;45.03;;;18.02;;
41881;SDS011;27562;47.524;12.404;2024-01-10T11:06:05;49.78;;;20.20;;
41881;SDS011;27562;47.524;12.404;2024-01-10T11:08:34;45.75;;;20.20;;
41881;SDS011;27562;47.524;12.404;2024-01-10T11:11:06;46.60;;;20.05;;
41881;SDS011;27562;47.524;12.404;2024-01-10T11:13:51;46.80;;;18.85;;
41881;SDS011;27562;47.524;12.404;2024-01-10T11:19:43;54.53;;;22.88;;
41881;SDS011;27562;47.524;12.404;2024-01-10T11:24:59;58.22;;;20.20;;
41881;SDS011;27562;47.524;12.404;2024-01-10T11:27:25;44.63;;;18.70;;
41881;SDS011;27562;47.524;12.404;2024-01-10T11:29:52;37.78;;;16.27;;
41881;SDS011;27562;47.524;12.404;2024-01-10T11:32:18;38.30;;;15.90;;
41881;SDS011;27562;47.524;12.404;2024-01-10T11:37:23;40.38;;;18.30;;
41881;SDS011;27562;47.524;12.404;2024-01-10T11:39:53;41.60;;;17.00;;
41881;SDS011;27562;47.524;12.404;2024-01-10T11:42:22;47.05;;;18.30;;
41881;SDS011;27562;47.524;12.404;2024-01-10T11:44:49;37.58;;;17.75;;
41881;SDS011;27562;47.524;12.404;2024-01-10T11:47:16;39.83;;;16.90;;
41881;SDS011;27562;47.524;12.404;2024-01-10T11:49:58;39.47;;;17.25;;
41881;SDS011;27562;47.524;12.404;2024-01-10T11:52:25;43.70;;;17.63;;
41881;SDS011;27562;47.524;12.404;2024-01-10T11:54:58;40.45;;;16.92;;
41881;SDS011;27562;47.524;12.404;2024-01-10T11:57:27;38.90;;;16.00;;
41881;SDS011;27562;47.524;12.404;2024-01-10T11:59:54;39.47;;;17.20;;
41881;SDS011;27562;47.524;12.404;2024-01-10T12:02:21;57.30;;;17.10;;
41881;SDS011;27562;47.524;12.404;2024-01-10T12:04:50;56.50;;;19.38;;
41881;SDS011;27562;47.524;12.404;2024-01-10T12:07:16;49.47;;;19.05;;
41881;SDS011;27562;47.524;12.404;2024-01-10T12:09:43;55.83;;;17.83;;
41881;SDS011;27562;47.524;12.404;2024-01-10T12:12:09;49.28;;;17.50;;
41881;SDS011;27562;47.524;12.404;2024-01-10T12:14:37;43.15;;;19.30;;
41881;SDS011;27562;47.524;12.404;2024-01-10T12:17:04;49.25;;;18.50;;
41881;SDS011;27562;47.524;12.404;2024-01-10T12:19:33;53.53;;;18.60;;
41881;SDS011;27562;47.524;12.404;2024-01-10T12:21:59;43.08;;;17.80;;
41881;SDS011;27562;47.524;12.404;2024-01-10T12:24:27;41.92;;;17.67;;
41881;SDS011;27562;47.524;12.404;2024-01-10T12:26:54;44.03;;;17.88;;
41881;SDS011;27562;47.524;12.404;2024-01-10T12:29:21;40.67;;;16.58;;
41881;SDS011;27562;47.524;12.404;2024-01-10T12:31:47;46.85;;;17.67;;
41881;SDS011;27562;47.524;12.404;2024-01-10T12:34:13;50.50;;;19.13;;
41881;SDS011;27562;47.524;12.404;2024-01-10T12:36:40;51.83;;;20.90;;
41881;SDS011;27562;47.524;12.404;2024-01-10T12:39:07;60.67;;;21.95;;
41881;SDS011;27562;47.524;12.404;2024-01-10T12:41:33;55.28;;;23.77;;
41881;SDS011;27562;47.524;12.404;2024-01-10T12:44:02;56.72;;;25.00;;
41881;SDS011;27562;47.524;12.404;2024-01-10T12:46:29;61.22;;;25.27;;
41881;SDS011;27562;47.524;12.404;2024-01-10T12:51:26;62.67;;;26.63;;
41881;SDS011;27562;47.524;12.404;2024-01-10T12:53:54;59.10;;;24.38;;
41881;SDS011;27562;47.524;12.404;2024-01-10T12:56:21;55.65;;;22.92;;
41881;SDS011;27562;47.524;12.404;2024-01-10T12:58:46;53.90;;;23.20;;
41881;SDS011;27562;47.524;12.404;2024-01-10T13:01:12;55.47;;;23.73;;
41881;SDS011;27562;47.524;12.404;2024-01-10T13:03:38;53.22;;;21.55;;
41881;SDS011;27562;47.524;12.404;2024-01-10T13:06:05;46.97;;;20.25;;
41881;SDS011;27562;47.524;12.404;2024-01-10T13:08:31;48.47;;;20.80;;
41881;SDS011;27562;47.524;12.404;2024-01-10T13:10:57;43.92;;;19.38;;
41881;SDS011;27562;47.524;12.404;2024-01-10T13:13:24;44.80;;;17.98;;
41881;SDS011;27562;47.524;12.404;2024-01-10T13:15:50;32.40;;;16.60;;
41881;SDS011;27562;47.524;12.404;2024-01-10T13:18:16;38.17;;;17.45;;
41881;SDS011;27562;47.524;12.404;2024-01-10T13:20:43;36.83;;;17.58;;
41881;SDS011;27562;47.524;12.404;2024-01-10T13:23:09;40.63;;;18.25;;
41881;SDS011;27562;47.524;12.404;2024-01-10T13:25:35;40.05;;;19.42;;
41881;SDS011;27562;47.524;12.404;2024-01-10T13:28:02;44.40;;;18.40;;
41881;SDS011;27562;47.524;12.404;2024-01-10T13:30:29;38.30;;;19.05;;
41881;SDS011;27562;47.524;12.404;2024-01-10T13:32:55;34.83;;;17.65;;
41881;SDS011;27562;47.524;12.404;2024-01-10T13:35:20;52.42;;;22.40;;
41881;SDS011;27562;47.524;12.404;2024-01-10T13:37:47;47.30;;;21.52;;
41881;SDS011;27562;47.524;12.404;2024-01-10T13:40:13;39.80;;;18.50;;
41881;SDS011;27562;47.524;12.404;2024-01-10T13:42:39;41.25;;;17.90;;
41881;SDS011;27562;47.524;12.404;2024-01-10T13:45:05;39.45;;;18.23;;
41881;SDS011;27562;47.524;12.404;2024-01-10T13:47:32;42.97;;;17.98;;
41881;SDS011;27562;47.524;12.404;2024-01-10T13:49:59;42.50;;;17.50;;
41881;SDS011;27562;47.524;12.404;2024-01-10T13:52:25;35.35;;;16.88;;
41881;SDS011;27562;47.524;12.404;2024-01-10T13:54:51;39.38;;;16.88;;
41881;SDS011;27562;47.524;12.404;2024-01-10T13:57:17;39.38;;;18.85;;
41881;SDS011;27562;47.524;12.404;2024-01-10T13:59:43;43.08;;;19.38;;
41881;SDS011;27562;47.524;12.404;2024-01-10T14:02:09;44.08;;;19.60;;
41881;SDS011;27562;47.524;12.404;2024-01-10T14:04:35;43.38;;;19.98;;
41881;SDS011;27562;47.524;12.404;2024-01-10T14:07:01;43.65;;;18.90;;
41881;SDS011;27562;47.524;12.404;2024-01-10T14:09:29;40.40;;;19.27;;
41881;SDS011;27562;47.524;12.404;2024-01-10T14:11:55;41.08;;;18.50;;
41881;SDS011;27562;47.524;12.404;2024-01-10T14:14:21;39.80;;;18.30;;
41881;SDS011;27562;47.524;12.404;2024-01-10T14:16:47;38.25;;;17.25;;
41881;SDS011;27562;47.524;12.404;2024-01-10T14:19:13;41.20;;;18.40;;
41881;SDS011;27562;47.524;12.404;2024-01-10T14:21:39;42.05;;;19.67;;
41881;SDS011;27562;47.524;12.404;2024-01-10T14:24:04;40.03;;;19.08;;